sensor_id;sensor_type;location;lat;lon;timestamp;P1;durP1;ratioP1;P2;durP2;ratioP2
24617;SDS011;12762;51.730;5.356;2022-10-01T00:01:50;6.30;;;4.50;;
24617;SDS011;12762;51.730;5.356;2022-10-01T00:04:17;7.37;;;4.93;;
24617;SDS011;12762;51.730;5.356;2022-10-01T00:06:44;7.13;;;4.90;;
24617;SDS011;12762;51.730;5.356;2022-10-01T00:09:10;6.27;;;4.33;;
24617;SDS011;12762;51.730;5.356;2022-10-01T00:11:37;9.57;;;4.10;;
24617;SDS011;12762;51.730;5.356;2022-10-01T00:14:04;7.87;;;4.40;;
24617;SDS011;12762;51.730;5.356;2022-10-01T00:16:31;6.90;;;4.13;;
24617;SDS011;12762;51.730;5.356;2022-10-01T00:18:58;7.33;;;4.60;;
24617;SDS011;12762;51.730;5.356;2022-10-01T00:21:27;6.40;;;4.30;;
24617;SDS011;12762;51.730;5.356;2022-10-01T00:23:57;8.80;;;4.43;;
24617;SDS011;12762;51.730;5.356;2022-10-01T00:26:30;7.80;;;4.57;;
24617;SDS011;12762;51.730;5.356;2022-10-01T00:29:06;7.67;;;4.43;;
24617;SDS011;12762;51.730;5.356;2022-10-01T00:31:36;8.67;;;4.37;;
24617;SDS011;12762;51.730;5.356;2022-10-01T00:34:04;6.73;;;4.57;;
24617;SDS011;12762;51.730;5.356;2022-10-01T00:36:31;7.37;;;4.60;;
24617;SDS011;12762;51.730;5.356;2022-10-01T00:38:58;7.07;;;4.37;;
24617;SDS011;12762;51.730;5.356;2022-10-01T00:41:26;7.40;;;4.73;;
24617;SDS011;12762;51.730;5.356;2022-10-01T00:47:12;5.70;;;4.50;;
24617;SDS011;12762;51.730;5.356;2022-10-01T00:49:49;12.07;;;4.40;;
24617;SDS011;12762;51.730;5.356;2022-10-01T00:52:26;6.17;;;3.93;;
24617;SDS011;12762;51.730;5.356;2022-10-01T00:54:57;8.20;;;4.90;;
24617;SDS011;12762;51.730;5.356;2022-10-01T00:57:32;9.30;;;4.90;;
24617;SDS011;12762;51.730;5.356;2022-10-01T01:00:00;6.50;;;4.70;;
24617;SDS011;12762;51.730;5.356;2022-10-01T01:02:29;7.13;;;4.20;;
24617;SDS011;12762;51.730;5.356;2022-10-01T01:07:31;5.77;;;4.03;;
24617;SDS011;12762;51.730;5.356;2022-10-01T01:09:59;5.50;;;4.53;;
24617;SDS011;12762;51.730;5.356;2022-10-01T01:28:26;5.47;;;3.60;;
24617;SDS011;12762;51.730;5.356;2022-10-01T01:31:03;9.23;;;3.80;;
24617;SDS011;12762;51.730;5.356;2022-10-01T01:33:37;4.90;;;3.53;;
24617;SDS011;12762;51.730;5.356;2022-10-01T01:36:06;6.23;;;3.93;;
24617;SDS011;12762;51.730;5.356;2022-10-01T01:38:42;5.63;;;3.63;;
24617;SDS011;12762;51.730;5.356;2022-10-01T01:41:14;8.37;;;3.50;;
24617;SDS011;12762;51.730;5.356;2022-10-01T01:43:43;4.47;;;2.80;;
24617;SDS011;12762;51.730;5.356;2022-10-01T01:46:13;4.67;;;3.20;;
24617;SDS011;12762;51.730;5.356;2022-10-01T01:48:43;4.10;;;2.80;;
24617;SDS011;12762;51.730;5.356;2022-10-01T01:51:19;6.13;;;2.70;;
24617;SDS011;12762;51.730;5.356;2022-10-01T01:53:58;4.23;;;2.70;;
24617;SDS011;12762;51.730;5.356;2022-10-01T01:56:30;6.13;;;3.20;;
24617;SDS011;12762;51.730;5.356;2022-10-01T01:58:59;3.53;;;2.40;;
24617;SDS011;12762;51.730;5.356;2022-10-01T02:01:44;3.30;;;2.53;;
24617;SDS011;12762;51.730;5.356;2022-10-01T02:04:14;4.93;;;2.33;;
24617;SDS011;12762;51.730;5.356;2022-10-01T02:09:52;2.43;;;1.83;;
24617;SDS011;12762;51.730;5.356;2022-10-01T02:12:47;3.87;;;2.30;;
24617;SDS011;12762;51.730;5.356;2022-10-01T02:15:36;3.30;;;2.30;;
24617;SDS011;12762;51.730;5.356;2022-10-01T02:21:09;3.47;;;1.80;;
24617;SDS011;12762;51.730;5.356;2022-10-01T02:26:30;2.57;;;1.90;;
24617;SDS011;12762;51.730;5.356;2022-10-01T02:29:02;3.23;;;1.77;;
24617;SDS011;12762;51.730;5.356;2022-10-01T02:31:32;2.10;;;1.53;;
24617;SDS011;12762;51.730;5.356;2022-10-01T02:34:01;2.97;;;1.80;;
24617;SDS011;12762;51.730;5.356;2022-10-01T02:36:37;3.37;;;1.97;;
24617;SDS011;12762;51.730;5.356;2022-10-01T02:39:06;2.87;;;1.70;;
24617;SDS011;12762;51.730;5.356;2022-10-01T02:41:35;2.90;;;2.17;;
24617;SDS011;12762;51.730;5.356;2022-10-01T02:44:09;3.83;;;1.93;;
24617;SDS011;12762;51.730;5.356;2022-10-01T02:49:12;2.43;;;1.70;;
24617;SDS011;12762;51.730;5.356;2022-10-01T02:54:17;1.60;;;1.47;;
24617;SDS011;12762;51.730;5.356;2022-10-01T02:56:49;2.30;;;1.53;;
24617;SDS011;12762;51.730;5.356;2022-10-01T02:59:35;2.47;;;1.40;;
24617;SDS011;12762;51.730;5.356;2022-10-01T03:02:02;1.90;;;1.30;;
24617;SDS011;12762;51.730;5.356;2022-10-01T03:04:29;1.90;;;1.30;;
24617;SDS011;12762;51.730;5.356;2022-10-01T03:06:56;2.17;;;1.10;;
24617;SDS011;12762;51.730;5.356;2022-10-01T03:09:32;1.20;;;1.10;;
24617;SDS011;12762;51.730;5.356;2022-10-01T03:12:02;1.17;;;1.07;;
24617;SDS011;12762;51.730;5.356;2022-10-01T03:14:29;1.40;;;0.90;;
24617;SDS011;12762;51.730;5.356;2022-10-01T03:16:57;1.83;;;1.10;;
24617;SDS011;12762;51.730;5.356;2022-10-01T03:19:24;1.43;;;1.03;;
24617;SDS011;12762;51.730;5.356;2022-10-01T03:21:50;1.50;;;1.10;;
24617;SDS011;12762;51.730;5.356;2022-10-01T03:24:17;1.40;;;1.00;;
24617;SDS011;12762;51.730;5.356;2022-10-01T03:26:44;3.90;;;1.00;;
24617;SDS011;12762;51.730;5.356;2022-10-01T03:29:13;1.40;;;0.80;;
24617;SDS011;12762;51.730;5.356;2022-10-01T03:31:40;1.90;;;1.07;;
24617;SDS011;12762;51.730;5.356;2022-10-01T03:34:07;2.43;;;1.00;;
24617;SDS011;12762;51.730;5.356;2022-10-01T03:36:38;4.70;;;1.30;;
24617;SDS011;12762;51.730;5.356;2022-10-01T03:39:05;2.27;;;1.00;;
24617;SDS011;12762;51.730;5.356;2022-10-01T03:41:32;1.53;;;0.90;;
24617;SDS011;12762;51.730;5.356;2022-10-01T03:43:59;1.27;;;1.00;;
24617;SDS011;12762;51.730;5.356;2022-10-01T03:46:28;2.10;;;0.90;;
24617;SDS011;12762;51.730;5.356;2022-10-01T03:48:58;1.77;;;1.30;;
24617;SDS011;12762;51.730;5.356;2022-10-01T03:51:29;1.83;;;1.17;;
24617;SDS011;12762;51.730;5.356;2022-10-01T03:53:57;2.97;;;1.20;;
24617;SDS011;12762;51.730;5.356;2022-10-01T03:56:25;1.53;;;1.00;;
24617;SDS011;12762;51.730;5.356;2022-10-01T03:58:51;0.90;;;0.80;;
24617;SDS011;12762;51.730;5.356;2022-10-01T04:01:18;1.80;;;1.17;;
24617;SDS011;12762;51.730;5.356;2022-10-01T04:03:45;1.17;;;0.93;;
24617;SDS011;12762;51.730;5.356;2022-10-01T04:06:15;2.10;;;1.10;;
24617;SDS011;12762;51.730;5.356;2022-10-01T04:08:45;3.03;;;1.27;;
24617;SDS011;12762;51.730;5.356;2022-10-01T04:11:12;1.67;;;1.10;;
24617;SDS011;12762;51.730;5.356;2022-10-01T04:13:38;1.43;;;1.10;;
24617;SDS011;12762;51.730;5.356;2022-10-01T04:16:05;1.20;;;1.10;;
24617;SDS011;12762;51.730;5.356;2022-10-01T04:18:32;3.53;;;1.00;;
24617;SDS011;12762;51.730;5.356;2022-10-01T04:21:01;1.40;;;0.90;;
24617;SDS011;12762;51.730;5.356;2022-10-01T04:23:29;1.73;;;1.07;;
24617;SDS011;12762;51.730;5.356;2022-10-01T04:25:59;1.50;;;1.20;;
24617;SDS011;12762;51.730;5.356;2022-10-01T04:28:30;1.83;;;1.30;;
24617;SDS011;12762;51.730;5.356;2022-10-01T04:30:57;1.60;;;1.30;;
24617;SDS011;12762;51.730;5.356;2022-10-01T04:33:45;2.60;;;1.70;;
24617;SDS011;12762;51.730;5.356;2022-10-01T04:36:15;2.47;;;1.70;;
24617;SDS011;12762;51.730;5.356;2022-10-01T04:38:42;2.07;;;1.53;;
24617;SDS011;12762;51.730;5.356;2022-10-01T04:41:09;2.67;;;1.73;;
24617;SDS011;12762;51.730;5.356;2022-10-01T04:43:36;1.70;;;1.60;;
24617;SDS011;12762;51.730;5.356;2022-10-01T04:46:02;2.17;;;1.90;;
24617;SDS011;12762;51.730;5.356;2022-10-01T04:48:29;3.30;;;1.93;;
24617;SDS011;12762;51.730;5.356;2022-10-01T04:50:56;3.50;;;2.20;;
24617;SDS011;12762;51.730;5.356;2022-10-01T04:53:23;2.27;;;1.93;;
24617;SDS011;12762;51.730;5.356;2022-10-01T04:55:50;2.60;;;2.27;;
24617;SDS011;12762;51.730;5.356;2022-10-01T04:58:17;2.80;;;2.50;;
24617;SDS011;12762;51.730;5.356;2022-10-01T05:00:43;3.30;;;2.43;;
24617;SDS011;12762;51.730;5.356;2022-10-01T05:03:10;3.20;;;2.30;;
24617;SDS011;12762;51.730;5.356;2022-10-01T05:05:40;3.17;;;2.77;;
24617;SDS011;12762;51.730;5.356;2022-10-01T05:08:07;4.13;;;3.33;;
24617;SDS011;12762;51.730;5.356;2022-10-01T05:10:33;3.33;;;3.03;;
24617;SDS011;12762;51.730;5.356;2022-10-01T05:13:00;3.83;;;3.37;;
24617;SDS011;12762;51.730;5.356;2022-10-01T05:15:28;4.93;;;3.70;;
24617;SDS011;12762;51.730;5.356;2022-10-01T05:17:55;4.53;;;3.60;;
24617;SDS011;12762;51.730;5.356;2022-10-01T05:20:23;5.33;;;3.77;;
24617;SDS011;12762;51.730;5.356;2022-10-01T05:22:51;5.27;;;3.73;;
24617;SDS011;12762;51.730;5.356;2022-10-01T05:25:19;3.60;;;3.30;;
24617;SDS011;12762;51.730;5.356;2022-10-01T05:27:46;4.40;;;3.77;;
24617;SDS011;12762;51.730;5.356;2022-10-01T05:30:14;8.37;;;3.87;;
24617;SDS011;12762;51.730;5.356;2022-10-01T05:32:53;4.17;;;3.67;;
24617;SDS011;12762;51.730;5.356;2022-10-01T05:35:21;4.57;;;4.17;;
24617;SDS011;12762;51.730;5.356;2022-10-01T05:37:54;4.47;;;3.83;;
24617;SDS011;12762;51.730;5.356;2022-10-01T05:40:23;6.43;;;4.33;;
24617;SDS011;12762;51.730;5.356;2022-10-01T05:42:53;6.33;;;4.67;;
24617;SDS011;12762;51.730;5.356;2022-10-01T05:45:23;6.83;;;4.70;;
24617;SDS011;12762;51.730;5.356;2022-10-01T05:47:58;7.27;;;4.80;;
24617;SDS011;12762;51.730;5.356;2022-10-01T05:50:27;7.63;;;4.67;;
24617;SDS011;12762;51.730;5.356;2022-10-01T05:52:58;6.47;;;5.10;;
24617;SDS011;12762;51.730;5.356;2022-10-01T05:55:26;9.07;;;5.07;;
24617;SDS011;12762;51.730;5.356;2022-10-01T05:58:02;8.30;;;5.43;;
24617;SDS011;12762;51.730;5.356;2022-10-01T06:00:31;10.37;;;6.13;;
24617;SDS011;12762;51.730;5.356;2022-10-01T06:02:59;10.67;;;5.80;;
24617;SDS011;12762;51.730;5.356;2022-10-01T06:05:28;8.43;;;6.33;;
24617;SDS011;12762;51.730;5.356;2022-10-01T06:07:56;7.07;;;6.07;;
24617;SDS011;12762;51.730;5.356;2022-10-01T06:10:23;9.73;;;6.87;;
24617;SDS011;12762;51.730;5.356;2022-10-01T06:12:51;10.03;;;7.53;;
24617;SDS011;12762;51.730;5.356;2022-10-01T06:15:23;8.37;;;7.40;;
24617;SDS011;12762;51.730;5.356;2022-10-01T06:17:49;10.30;;;7.17;;
24617;SDS011;12762;51.730;5.356;2022-10-01T06:20:18;12.03;;;7.27;;
24617;SDS011;12762;51.730;5.356;2022-10-01T06:22:52;10.13;;;8.00;;
24617;SDS011;12762;51.730;5.356;2022-10-01T06:25:20;9.57;;;7.20;;
24617;SDS011;12762;51.730;5.356;2022-10-01T06:27:50;12.73;;;8.10;;
24617;SDS011;12762;51.730;5.356;2022-10-01T06:30:25;11.67;;;8.27;;
24617;SDS011;12762;51.730;5.356;2022-10-01T06:33:00;11.63;;;8.47;;
24617;SDS011;12762;51.730;5.356;2022-10-01T06:35:32;9.97;;;8.60;;
24617;SDS011;12762;51.730;5.356;2022-10-01T06:38:00;12.17;;;8.93;;
24617;SDS011;12762;51.730;5.356;2022-10-01T06:40:28;11.90;;;8.97;;
24617;SDS011;12762;51.730;5.356;2022-10-01T06:42:56;14.10;;;8.67;;
24617;SDS011;12762;51.730;5.356;2022-10-01T06:45:27;14.20;;;9.50;;
24617;SDS011;12762;51.730;5.356;2022-10-01T06:47:55;11.40;;;8.77;;
24617;SDS011;12762;51.730;5.356;2022-10-01T06:50:23;11.00;;;8.97;;
24617;SDS011;12762;51.730;5.356;2022-10-01T06:52:51;10.47;;;9.37;;
24617;SDS011;12762;51.730;5.356;2022-10-01T06:55:19;13.37;;;9.23;;
24617;SDS011;12762;51.730;5.356;2022-10-01T06:57:55;11.63;;;9.37;;
24617;SDS011;12762;51.730;5.356;2022-10-01T07:00:24;10.67;;;9.27;;
24617;SDS011;12762;51.730;5.356;2022-10-01T07:02:53;12.37;;;9.03;;
24617;SDS011;12762;51.730;5.356;2022-10-01T07:05:24;15.23;;;9.30;;
24617;SDS011;12762;51.730;5.356;2022-10-01T07:07:51;11.57;;;9.07;;
24617;SDS011;12762;51.730;5.356;2022-10-01T07:10:19;13.03;;;9.00;;
24617;SDS011;12762;51.730;5.356;2022-10-01T07:12:47;13.77;;;9.20;;
24617;SDS011;12762;51.730;5.356;2022-10-01T07:15:15;12.07;;;8.47;;
24617;SDS011;12762;51.730;5.356;2022-10-01T07:17:44;11.53;;;8.80;;
24617;SDS011;12762;51.730;5.356;2022-10-01T07:20:13;12.80;;;8.47;;
24617;SDS011;12762;51.730;5.356;2022-10-01T07:22:43;13.93;;;9.10;;
24617;SDS011;12762;51.730;5.356;2022-10-01T07:25:11;11.10;;;9.00;;
24617;SDS011;12762;51.730;5.356;2022-10-01T07:27:38;14.83;;;10.20;;
24617;SDS011;12762;51.730;5.356;2022-10-01T07:30:05;11.10;;;8.50;;
24617;SDS011;12762;51.730;5.356;2022-10-01T07:32:33;14.90;;;9.33;;
24617;SDS011;12762;51.730;5.356;2022-10-01T07:35:00;12.70;;;9.50;;
24617;SDS011;12762;51.730;5.356;2022-10-01T07:37:31;11.77;;;9.27;;
24617;SDS011;12762;51.730;5.356;2022-10-01T07:39:57;12.37;;;8.60;;
24617;SDS011;12762;51.730;5.356;2022-10-01T07:42:29;12.20;;;8.47;;
24617;SDS011;12762;51.730;5.356;2022-10-01T07:44:59;10.00;;;7.97;;
24617;SDS011;12762;51.730;5.356;2022-10-01T07:47:32;12.20;;;7.93;;
24617;SDS011;12762;51.730;5.356;2022-10-01T07:50:01;12.30;;;8.70;;
24617;SDS011;12762;51.730;5.356;2022-10-01T07:52:28;12.33;;;8.43;;
24617;SDS011;12762;51.730;5.356;2022-10-01T07:54:56;14.20;;;7.67;;
24617;SDS011;12762;51.730;5.356;2022-10-01T07:57:28;11.53;;;7.07;;
24617;SDS011;12762;51.730;5.356;2022-10-01T07:59:55;9.53;;;7.17;;
24617;SDS011;12762;51.730;5.356;2022-10-01T08:02:22;10.73;;;6.70;;
24617;SDS011;12762;51.730;5.356;2022-10-01T08:04:49;8.07;;;6.60;;
24617;SDS011;12762;51.730;5.356;2022-10-01T08:07:34;8.97;;;6.13;;
24617;SDS011;12762;51.730;5.356;2022-10-01T08:10:02;7.50;;;5.03;;
24617;SDS011;12762;51.730;5.356;2022-10-01T08:12:32;8.20;;;4.87;;
24617;SDS011;12762;51.730;5.356;2022-10-01T08:14:59;4.60;;;3.63;;
24617;SDS011;12762;51.730;5.356;2022-10-01T08:17:27;5.33;;;3.13;;
24617;SDS011;12762;51.730;5.356;2022-10-01T08:19:54;7.07;;;3.53;;
24617;SDS011;12762;51.730;5.356;2022-10-01T08:22:21;5.70;;;3.37;;
24617;SDS011;12762;51.730;5.356;2022-10-01T08:24:48;6.53;;;3.10;;
24617;SDS011;12762;51.730;5.356;2022-10-01T08:27:15;9.67;;;4.13;;
24617;SDS011;12762;51.730;5.356;2022-10-01T08:29:41;5.53;;;3.20;;
24617;SDS011;12762;51.730;5.356;2022-10-01T08:32:09;5.23;;;2.70;;
24617;SDS011;12762;51.730;5.356;2022-10-01T08:34:36;8.43;;;2.80;;
24617;SDS011;12762;51.730;5.356;2022-10-01T08:37:02;3.93;;;2.40;;
24617;SDS011;12762;51.730;5.356;2022-10-01T08:39:29;4.77;;;2.00;;
24617;SDS011;12762;51.730;5.356;2022-10-01T08:42:07;5.37;;;2.10;;
24617;SDS011;12762;51.730;5.356;2022-10-01T08:44:44;5.23;;;2.00;;
24617;SDS011;12762;51.730;5.356;2022-10-01T08:47:32;4.20;;;2.73;;
24617;SDS011;12762;51.730;5.356;2022-10-01T08:50:11;4.33;;;2.10;;
24617;SDS011;12762;51.730;5.356;2022-10-01T08:52:50;4.73;;;2.80;;
24617;SDS011;12762;51.730;5.356;2022-10-01T08:55:22;7.10;;;2.40;;
24617;SDS011;12762;51.730;5.356;2022-10-01T08:57:55;5.23;;;2.23;;
24617;SDS011;12762;51.730;5.356;2022-10-01T09:00:25;4.27;;;2.00;;
24617;SDS011;12762;51.730;5.356;2022-10-01T09:02:53;3.77;;;1.90;;
24617;SDS011;12762;51.730;5.356;2022-10-01T09:08:15;6.83;;;2.63;;
24617;SDS011;12762;51.730;5.356;2022-10-01T09:21:54;6.00;;;2.40;;
24617;SDS011;12762;51.730;5.356;2022-10-01T09:27:22;8.57;;;2.73;;
24617;SDS011;12762;51.730;5.356;2022-10-01T09:29:58;5.60;;;2.13;;
24617;SDS011;12762;51.730;5.356;2022-10-01T09:32:35;7.83;;;1.93;;
24617;SDS011;12762;51.730;5.356;2022-10-01T09:35:41;10.50;;;2.10;;
24617;SDS011;12762;51.730;5.356;2022-10-01T09:40:51;7.30;;;2.17;;
24617;SDS011;12762;51.730;5.356;2022-10-01T09:43:30;10.43;;;1.90;;
24617;SDS011;12762;51.730;5.356;2022-10-01T09:45:58;12.30;;;2.00;;
24617;SDS011;12762;51.730;5.356;2022-10-01T09:48:31;11.80;;;2.20;;
24617;SDS011;12762;51.730;5.356;2022-10-01T09:51:07;9.37;;;1.60;;
24617;SDS011;12762;51.730;5.356;2022-10-01T09:53:40;10.00;;;1.73;;
24617;SDS011;12762;51.730;5.356;2022-10-01T09:59:05;7.70;;;1.43;;
24617;SDS011;12762;51.730;5.356;2022-10-01T10:01:43;13.13;;;1.80;;
24617;SDS011;12762;51.730;5.356;2022-10-01T10:04:20;8.80;;;1.30;;
24617;SDS011;12762;51.730;5.356;2022-10-01T10:06:49;6.40;;;1.50;;
24617;SDS011;12762;51.730;5.356;2022-10-01T10:09:20;13.67;;;1.60;;
24617;SDS011;12762;51.730;5.356;2022-10-01T10:11:53;10.97;;;1.60;;
24617;SDS011;12762;51.730;5.356;2022-10-01T10:14:31;6.50;;;1.20;;
24617;SDS011;12762;51.730;5.356;2022-10-01T10:17:11;11.03;;;1.40;;
24617;SDS011;12762;51.730;5.356;2022-10-01T10:19:48;11.57;;;1.50;;
24617;SDS011;12762;51.730;5.356;2022-10-01T10:22:25;8.90;;;1.27;;
24617;SDS011;12762;51.730;5.356;2022-10-01T10:24:53;8.43;;;1.50;;
24617;SDS011;12762;51.730;5.356;2022-10-01T10:27:25;10.27;;;1.67;;
24617;SDS011;12762;51.730;5.356;2022-10-01T10:30:12;8.67;;;1.33;;
24617;SDS011;12762;51.730;5.356;2022-10-01T10:32:41;10.60;;;1.67;;
24617;SDS011;12762;51.730;5.356;2022-10-01T10:35:21;7.30;;;1.40;;
24617;SDS011;12762;51.730;5.356;2022-10-01T10:37:51;10.67;;;1.57;;
24617;SDS011;12762;51.730;5.356;2022-10-01T10:40:21;7.60;;;1.13;;
24617;SDS011;12762;51.730;5.356;2022-10-01T10:43:05;8.37;;;1.60;;
24617;SDS011;12762;51.730;5.356;2022-10-01T10:45:41;11.60;;;1.80;;
24617;SDS011;12762;51.730;5.356;2022-10-01T10:48:14;9.27;;;1.67;;
24617;SDS011;12762;51.730;5.356;2022-10-01T10:50:43;6.80;;;1.10;;
24617;SDS011;12762;51.730;5.356;2022-10-01T10:53:18;5.67;;;1.13;;
24617;SDS011;12762;51.730;5.356;2022-10-01T10:56:01;8.63;;;1.43;;
24617;SDS011;12762;51.730;5.356;2022-10-01T10:58:32;9.60;;;1.60;;
24617;SDS011;12762;51.730;5.356;2022-10-01T11:01:06;9.40;;;1.53;;
24617;SDS011;12762;51.730;5.356;2022-10-01T11:03:35;9.53;;;1.23;;
24617;SDS011;12762;51.730;5.356;2022-10-01T11:06:09;11.77;;;1.60;;
24617;SDS011;12762;51.730;5.356;2022-10-01T11:08:38;9.60;;;1.83;;
24617;SDS011;12762;51.730;5.356;2022-10-01T11:22:53;6.10;;;1.27;;
24617;SDS011;12762;51.730;5.356;2022-10-01T11:28:06;6.37;;;1.40;;
24617;SDS011;12762;51.730;5.356;2022-10-01T11:39:28;7.70;;;1.40;;
24617;SDS011;12762;51.730;5.356;2022-10-01T11:42:05;7.03;;;1.30;;
24617;SDS011;12762;51.730;5.356;2022-10-01T11:47:14;11.47;;;1.30;;
24617;SDS011;12762;51.730;5.356;2022-10-01T11:49:51;11.20;;;1.30;;
24617;SDS011;12762;51.730;5.356;2022-10-01T11:55:24;6.93;;;1.00;;
24617;SDS011;12762;51.730;5.356;2022-10-01T12:07:04;5.87;;;1.17;;
24617;SDS011;12762;51.730;5.356;2022-10-01T12:12:41;8.50;;;1.63;;
24617;SDS011;12762;51.730;5.356;2022-10-01T12:15:30;10.17;;;1.60;;
24617;SDS011;12762;51.730;5.356;2022-10-01T12:21:02;8.40;;;1.00;;
24617;SDS011;12762;51.730;5.356;2022-10-01T12:23:34;6.77;;;1.20;;
24617;SDS011;12762;51.730;5.356;2022-10-01T12:26:25;8.67;;;1.60;;
24617;SDS011;12762;51.730;5.356;2022-10-01T12:51:45;9.50;;;0.93;;
24617;SDS011;12762;51.730;5.356;2022-10-01T12:57:38;6.80;;;1.30;;
24617;SDS011;12762;51.730;5.356;2022-10-01T13:00:20;6.80;;;1.60;;
24617;SDS011;12762;51.730;5.356;2022-10-01T13:06:04;9.07;;;1.30;;
24617;SDS011;12762;51.730;5.356;2022-10-01T13:11:55;5.60;;;1.07;;
24617;SDS011;12762;51.730;5.356;2022-10-01T13:14:44;10.13;;;1.53;;
24617;SDS011;12762;51.730;5.356;2022-10-01T13:17:23;8.57;;;1.43;;
24617;SDS011;12762;51.730;5.356;2022-10-01T13:20:12;8.63;;;1.00;;
24617;SDS011;12762;51.730;5.356;2022-10-01T13:23:30;7.30;;;1.27;;
24617;SDS011;12762;51.730;5.356;2022-10-01T13:26:17;6.27;;;1.10;;
24617;SDS011;12762;51.730;5.356;2022-10-01T13:28:54;10.60;;;1.40;;
24617;SDS011;12762;51.730;5.356;2022-10-01T13:37:11;6.07;;;1.10;;
24617;SDS011;12762;51.730;5.356;2022-10-01T13:39:57;10.47;;;1.33;;
24617;SDS011;12762;51.730;5.356;2022-10-01T13:42:26;8.43;;;1.37;;
24617;SDS011;12762;51.730;5.356;2022-10-01T13:44:59;8.97;;;2.13;;
24617;SDS011;12762;51.730;5.356;2022-10-01T13:47:30;6.17;;;1.07;;
24617;SDS011;12762;51.730;5.356;2022-10-01T13:50:00;7.47;;;1.47;;
24617;SDS011;12762;51.730;5.356;2022-10-01T13:52:32;9.30;;;2.17;;
24617;SDS011;12762;51.730;5.356;2022-10-01T13:55:00;6.70;;;1.10;;
24617;SDS011;12762;51.730;5.356;2022-10-01T13:57:29;6.57;;;1.10;;
24617;SDS011;12762;51.730;5.356;2022-10-01T14:00:18;10.07;;;1.40;;
24617;SDS011;12762;51.730;5.356;2022-10-01T14:02:59;5.73;;;1.10;;
24617;SDS011;12762;51.730;5.356;2022-10-01T14:05:34;9.27;;;1.30;;
24617;SDS011;12762;51.730;5.356;2022-10-01T14:08:08;7.80;;;1.53;;
24617;SDS011;12762;51.730;5.356;2022-10-01T14:10:58;7.37;;;1.30;;
24617;SDS011;12762;51.730;5.356;2022-10-01T14:13:50;10.00;;;1.27;;
24617;SDS011;12762;51.730;5.356;2022-10-01T14:16:38;6.23;;;1.37;;
24617;SDS011;12762;51.730;5.356;2022-10-01T14:19:07;6.03;;;0.97;;
24617;SDS011;12762;51.730;5.356;2022-10-01T14:21:39;8.03;;;1.27;;
24617;SDS011;12762;51.730;5.356;2022-10-01T14:30:03;10.97;;;1.87;;
24617;SDS011;12762;51.730;5.356;2022-10-01T14:32:37;7.63;;;1.40;;
24617;SDS011;12762;51.730;5.356;2022-10-01T14:37:57;8.37;;;1.10;;
24617;SDS011;12762;51.730;5.356;2022-10-01T14:40:30;7.80;;;1.10;;
24617;SDS011;12762;51.730;5.356;2022-10-01T14:43:03;6.90;;;0.93;;
24617;SDS011;12762;51.730;5.356;2022-10-01T14:45:55;9.47;;;2.17;;
24617;SDS011;12762;51.730;5.356;2022-10-01T14:48:24;6.37;;;1.20;;
24617;SDS011;12762;51.730;5.356;2022-10-01T14:50:53;8.30;;;1.53;;
24617;SDS011;12762;51.730;5.356;2022-10-01T14:53:25;10.43;;;1.40;;
24617;SDS011;12762;51.730;5.356;2022-10-01T14:55:55;6.30;;;1.23;;
24617;SDS011;12762;51.730;5.356;2022-10-01T15:00:56;9.77;;;1.63;;
24617;SDS011;12762;51.730;5.356;2022-10-01T15:03:24;5.47;;;1.30;;
24617;SDS011;12762;51.730;5.356;2022-10-01T15:06:00;7.57;;;1.50;;
24617;SDS011;12762;51.730;5.356;2022-10-01T15:08:37;7.53;;;1.30;;
24617;SDS011;12762;51.730;5.356;2022-10-01T15:11:27;7.70;;;1.40;;
24617;SDS011;12762;51.730;5.356;2022-10-01T15:14:00;10.70;;;2.10;;
24617;SDS011;12762;51.730;5.356;2022-10-01T15:16:30;6.53;;;1.40;;
24617;SDS011;12762;51.730;5.356;2022-10-01T15:18:59;7.10;;;1.47;;
24617;SDS011;12762;51.730;5.356;2022-10-01T15:24:00;7.67;;;1.50;;
24617;SDS011;12762;51.730;5.356;2022-10-01T15:26:29;8.13;;;1.53;;
24617;SDS011;12762;51.730;5.356;2022-10-01T15:29:05;5.97;;;1.20;;
24617;SDS011;12762;51.730;5.356;2022-10-01T15:31:37;6.80;;;1.40;;
24617;SDS011;12762;51.730;5.356;2022-10-01T15:34:06;8.97;;;1.50;;
24617;SDS011;12762;51.730;5.356;2022-10-01T15:36:36;6.27;;;1.37;;
24617;SDS011;12762;51.730;5.356;2022-10-01T15:39:16;8.23;;;1.37;;
24617;SDS011;12762;51.730;5.356;2022-10-01T15:41:44;11.10;;;1.30;;
24617;SDS011;12762;51.730;5.356;2022-10-01T15:47:14;12.17;;;1.43;;
24617;SDS011;12762;51.730;5.356;2022-10-01T15:49:59;7.03;;;1.40;;
24617;SDS011;12762;51.730;5.356;2022-10-01T15:52:28;11.87;;;1.57;;
24617;SDS011;12762;51.730;5.356;2022-10-01T15:55:18;8.33;;;1.27;;
24617;SDS011;12762;51.730;5.356;2022-10-01T15:58:07;6.70;;;1.10;;
24617;SDS011;12762;51.730;5.356;2022-10-01T16:03:32;8.73;;;1.30;;
24617;SDS011;12762;51.730;5.356;2022-10-01T16:06:03;10.87;;;1.40;;
24617;SDS011;12762;51.730;5.356;2022-10-01T16:08:36;6.33;;;1.33;;
24617;SDS011;12762;51.730;5.356;2022-10-01T16:11:18;6.70;;;1.23;;
24617;SDS011;12762;51.730;5.356;2022-10-01T16:13:47;12.90;;;1.67;;
24617;SDS011;12762;51.730;5.356;2022-10-01T16:16:19;7.50;;;1.73;;
24617;SDS011;12762;51.730;5.356;2022-10-01T16:18:53;13.63;;;2.60;;
24617;SDS011;12762;51.730;5.356;2022-10-01T16:21:23;7.27;;;1.20;;
24617;SDS011;12762;51.730;5.356;2022-10-01T16:23:51;9.40;;;2.00;;
24617;SDS011;12762;51.730;5.356;2022-10-01T16:28:53;6.40;;;1.40;;
24617;SDS011;12762;51.730;5.356;2022-10-01T16:31:22;9.37;;;1.63;;
24617;SDS011;12762;51.730;5.356;2022-10-01T16:33:52;13.00;;;1.90;;
24617;SDS011;12762;51.730;5.356;2022-10-01T16:36:19;8.83;;;1.97;;
24617;SDS011;12762;51.730;5.356;2022-10-01T16:38:49;8.27;;;1.90;;
24617;SDS011;12762;51.730;5.356;2022-10-01T16:41:18;6.80;;;1.50;;
24617;SDS011;12762;51.730;5.356;2022-10-01T16:43:48;8.80;;;1.53;;
24617;SDS011;12762;51.730;5.356;2022-10-01T16:46:16;6.13;;;1.17;;
24617;SDS011;12762;51.730;5.356;2022-10-01T16:48:44;14.90;;;1.90;;
24617;SDS011;12762;51.730;5.356;2022-10-01T16:51:14;6.00;;;1.30;;
24617;SDS011;12762;51.730;5.356;2022-10-01T16:53:40;15.57;;;2.17;;
24617;SDS011;12762;51.730;5.356;2022-10-01T16:56:11;9.97;;;1.87;;
24617;SDS011;12762;51.730;5.356;2022-10-01T16:58:39;9.07;;;1.50;;
24617;SDS011;12762;51.730;5.356;2022-10-01T17:01:07;12.20;;;1.70;;
24617;SDS011;12762;51.730;5.356;2022-10-01T17:03:42;11.83;;;1.53;;
24617;SDS011;12762;51.730;5.356;2022-10-01T17:06:09;8.73;;;1.70;;
24617;SDS011;12762;51.730;5.356;2022-10-01T17:08:35;10.20;;;1.87;;
24617;SDS011;12762;51.730;5.356;2022-10-01T17:11:02;10.83;;;1.90;;
24617;SDS011;12762;51.730;5.356;2022-10-01T17:13:30;8.17;;;1.50;;
24617;SDS011;12762;51.730;5.356;2022-10-01T17:15:59;11.47;;;1.90;;
24617;SDS011;12762;51.730;5.356;2022-10-01T17:18:26;11.10;;;1.57;;
24617;SDS011;12762;51.730;5.356;2022-10-01T17:20:53;7.77;;;1.50;;
24617;SDS011;12762;51.730;5.356;2022-10-01T17:23:21;10.13;;;1.90;;
24617;SDS011;12762;51.730;5.356;2022-10-01T17:25:48;10.93;;;1.50;;
24617;SDS011;12762;51.730;5.356;2022-10-01T17:28:16;9.37;;;1.80;;
24617;SDS011;12762;51.730;5.356;2022-10-01T17:30:47;9.83;;;1.47;;
24617;SDS011;12762;51.730;5.356;2022-10-01T17:33:16;11.67;;;2.03;;
24617;SDS011;12762;51.730;5.356;2022-10-01T17:35:47;5.70;;;1.37;;
24617;SDS011;12762;51.730;5.356;2022-10-01T17:38:23;9.67;;;1.30;;
24617;SDS011;12762;51.730;5.356;2022-10-01T17:40:50;11.23;;;1.67;;
24617;SDS011;12762;51.730;5.356;2022-10-01T17:43:21;10.13;;;1.83;;
24617;SDS011;12762;51.730;5.356;2022-10-01T17:45:53;8.23;;;1.37;;
24617;SDS011;12762;51.730;5.356;2022-10-01T17:48:29;9.17;;;1.40;;
24617;SDS011;12762;51.730;5.356;2022-10-01T17:51:06;10.80;;;1.80;;
24617;SDS011;12762;51.730;5.356;2022-10-01T17:53:35;10.70;;;1.80;;